Time;durP1;ratioP1;P1;durP2;ratioP2;P2;SDS_P1;SDS_P2;PMS_P1;PMS_P2;Temp;Humidity;BMP_temperature;BMP_pressure;BME280_temperature;BME280_humidity;BME280_pressure;Samples;Min_cycle;Max_cycle;Signal;HPM_P1;HPM_P2
2022/10/16 00:01:23;;;;;;;6.57;1.20;;;22.80;41.90;;;;;;5050625;28;20680;-70
2022/10/16 00:03:51;;;;;;;6.30;1.10;;;22.80;41.80;;;;;;5043211;28;20184;-69
2022/10/16 00:06:20;;;;;;;18.63;2.10;;;22.50;42.00;;;;;;5052782;28;20247;-71
2022/10/16 00:08:49;;;;;;;5.10;1.17;;;22.60;42.00;;;;;;5050897;28;20180;-69
2022/10/16 00:11:19;;;;;;;5.70;1.60;;;22.20;42.00;;;;;;5052598;28;20259;-70
2022/10/16 00:13:48;;;;;;;2.73;1.17;;;22.30;41.90;;;;;;5052775;28;20183;-71
2022/10/16 00:16:15;;;;;;;3.13;1.17;;;22.50;41.60;;;;;;5051970;28;20168;-70
2022/10/16 00:18:43;;;;;;;3.40;1.10;;;22.30;42.30;;;;;;5052058;28;20191;-71
2022/10/16 00:21:22;;;;;;;4.50;1.50;;;22.60;42.50;;;;;;5052596;28;20257;-71
2022/10/16 00:23:55;;;;;;;4.80;1.30;;;23.10;42.30;;;;;;5049192;28;20258;-71
2022/10/16 00:26:23;;;;;;;5.47;1.50;;;23.40;42.40;;;;;;5041061;28;20184;-71
2022/10/16 00:28:51;;;;;;;4.87;1.33;;;23.20;42.40;;;;;;5050968;28;20183;-70
2022/10/16 00:31:21;;;;;;;5.00;1.43;;;23.00;42.60;;;;;;5044423;28;20250;-71
2022/10/16 00:33:49;;;;;;;4.93;1.20;;;22.80;42.50;;;;;;5052430;28;20221;-70
2022/10/16 00:36:18;;;;;;;4.03;1.43;;;22.60;44.00;;;;;;5052496;28;20538;-71
2022/10/16 00:38:46;;;;;;;5.70;1.20;;;22.90;43.80;;;;;;5044679;28;20548;-70
2022/10/16 00:41:18;;;;;;;6.53;1.57;;;23.10;42.90;;;;;;5048892;28;20171;-69
2022/10/16 00:43:54;;;;;;;8.33;1.80;;;23.30;44.60;;;;;;5042103;28;20183;-70
2022/10/16 00:46:26;;;;;;;4.13;1.30;;;23.60;44.30;;;;;;5031265;28;20235;-70
2022/10/16 00:49:18;;;;;;;7.63;1.40;;;23.70;44.70;;;;;;5045765;28;20588;-71
2022/10/16 00:51:53;;;;;;;7.57;1.50;;;23.80;43.40;;;;;;5033843;28;20218;-70
2022/10/16 00:54:31;;;;;;;7.90;1.60;;;23.80;43.90;;;;;;5049998;28;20218;-70
2022/10/16 00:57:03;;;;;;;5.20;1.40;;;24.20;44.60;;;;;;5051864;28;20246;-71
2022/10/16 00:59:34;;;;;;;5.60;1.17;;;24.30;44.00;;;;;;5057872;28;20187;-70
2022/10/16 01:02:02;;;;;;;8.97;1.50;;;24.40;43.90;;;;;;5051985;28;20307;-71
2022/10/16 01:04:36;;;;;;;11.33;2.07;;;23.80;45.00;;;;;;5052215;28;20183;-70
2022/10/16 01:07:09;;;;;;;8.30;1.57;;;23.10;46.20;;;;;;5035863;28;20184;-71
2022/10/16 01:09:42;;;;;;;6.03;1.40;;;23.10;46.80;;;;;;5043815;28;20559;-70
2022/10/16 01:12:50;;;;;;;4.63;1.33;;;23.30;46.10;;;;;;5052632;28;20308;-70
2022/10/16 01:15:57;;;;;;;4.93;1.50;;;23.60;45.40;;;;;;5030972;28;20629;-70
2022/10/16 01:18:42;;;;;;;9.27;1.93;;;23.50;45.30;;;;;;5048852;28;20183;-72
2022/10/16 01:21:28;;;;;;;4.97;1.43;;;23.40;45.20;;;;;;5038808;28;20192;-70
2022/10/16 01:24:23;;;;;;;10.87;1.40;;;24.00;44.40;;;;;;5051455;28;20192;-70
2022/10/16 01:27:12;;;;;;;4.77;1.30;;;24.60;43.40;;;;;;5039183;28;20276;-70
2022/10/16 01:29:43;;;;;;;4.40;1.20;;;24.40;42.70;;;;;;5041297;28;20706;-71
2022/10/16 01:32:42;;;;;;;4.30;1.07;;;24.80;42.30;;;;;;5048339;28;20195;-70
2022/10/16 01:35:21;;;;;;;3.27;0.97;;;24.20;42.90;;;;;;5051945;28;20184;-70
2022/10/16 01:37:51;;;;;;;3.77;1.33;;;24.20;43.10;;;;;;5051395;28;20179;-70
2022/10/16 01:40:21;;;;;;;4.80;1.50;;;24.40;42.80;;;;;;5055802;28;20207;-70
2022/10/16 01:43:01;;;;;;;4.23;1.43;;;24.50;42.50;;;;;;5055037;28;20215;-69
2022/10/16 01:45:30;;;;;;;7.03;1.30;;;24.70;42.00;;;;;;5049469;28;20263;-70
2022/10/16 01:48:00;;;;;;;8.47;3.27;;;24.40;42.10;;;;;;5048797;28;20250;-70
2022/10/16 01:50:28;;;;;;;3.80;1.30;;;24.50;42.00;;;;;;5053959;28;20187;-70
2022/10/16 01:52:58;;;;;;;7.10;1.60;;;25.00;41.80;;;;;;5049351;28;20189;-71
2022/10/16 01:55:37;;;;;;;6.97;1.43;;;25.20;41.40;;;;;;5052286;28;20211;-70
2022/10/16 01:58:07;;;;;;;7.73;1.40;;;24.80;41.70;;;;;;5052685;28;20668;-70
2022/10/16 02:00:37;;;;;;;4.67;1.60;;;24.50;42.20;;;;;;5045671;28;20246;-70
2022/10/16 02:03:06;;;;;;;3.80;1.40;;;24.10;42.60;;;;;;5053940;28;20667;-70
2022/10/16 02:05:48;;;;;;;4.37;1.50;;;24.50;42.70;;;;;;5050256;28;20183;-70
2022/10/16 02:08:15;;;;;;;5.97;1.13;;;24.80;42.80;;;;;;5047099;28;20222;-70
2022/10/16 02:10:42;;;;;;;5.60;1.60;;;24.00;43.90;;;;;;5046874;28;20207;-69
2022/10/16 02:13:51;;;;;;;3.90;1.13;;;24.10;44.70;;;;;;5052869;28;20222;-71
2022/10/16 02:16:19;;;;;;;6.03;1.60;;;24.40;44.40;;;;;;5048983;28;20185;-68
2022/10/16 02:18:46;;;;;;;3.27;1.50;;;24.50;45.30;;;;;;5044773;28;20180;-69
2022/10/16 02:21:40;;;;;;;4.73;1.20;;;24.80;44.90;;;;;;5050483;28;20218;-68
2022/10/16 02:24:30;;;;;;;5.33;1.83;;;24.10;46.00;;;;;;5050710;28;20195;-69
2022/10/16 02:27:20;;;;;;;5.97;1.47;;;24.60;45.40;;;;;;5048723;28;20187;-71
2022/10/16 02:29:58;;;;;;;4.57;1.70;;;24.20;46.10;;;;;;5050075;28;20555;-70
2022/10/16 02:32:30;;;;;;;5.97;1.40;;;24.20;46.50;;;;;;5048177;28;20195;-71
2022/10/16 02:35:00;;;;;;;5.00;1.53;;;24.40;46.10;;;;;;5048572;28;20540;-70
2022/10/16 02:37:28;;;;;;;8.40;1.57;;;24.10;46.00;;;;;;5051055;28;20191;-70
2022/10/16 02:39:58;;;;;;;5.83;1.50;;;23.70;47.50;;;;;;5050156;28;20226;-70
2022/10/16 02:42:37;;;;;;;5.37;1.77;;;24.30;46.40;;;;;;5052272;28;20223;-70
2022/10/16 02:45:06;;;;;;;6.37;1.70;;;24.60;46.20;;;;;;5044988;28;20246;-71
2022/10/16 02:47:33;;;;;;;6.97;1.60;;;25.00;45.00;;;;;;5050896;28;20212;-70
2022/10/16 02:50:01;;;;;;;10.20;2.00;;;25.40;44.20;;;;;;5045340;28;20291;-71
2022/10/16 02:52:28;;;;;;;3.50;1.37;;;25.60;43.30;;;;;;5045104;28;20180;-70
2022/10/16 02:54:55;;;;;;;3.83;1.30;;;25.50;44.60;;;;;;5051943;28;20254;-70
2022/10/16 02:57:23;;;;;;;3.87;1.30;;;26.10;43.30;;;;;;5048490;28;20215;-70
2022/10/16 02:59:50;;;;;;;5.73;1.30;;;25.80;43.30;;;;;;5054007;28;20638;-69
2022/10/16 03:02:18;;;;;;;6.00;1.40;;;25.50;43.00;;;;;;5053153;28;20234;-71
2022/10/16 03:04:45;;;;;;;4.43;1.30;;;25.30;44.20;;;;;;5052498;28;20172;-71
2022/10/16 03:07:12;;;;;;;2.47;1.20;;;26.10;42.80;;;;;;5039381;28;20595;-71
2022/10/16 03:09:40;;;;;;;4.47;1.37;;;26.30;41.90;;;;;;5053178;28;20180;-71
2022/10/16 03:12:07;;;;;;;7.57;1.70;;;26.30;42.20;;;;;;5051996;28;20538;-70
2022/10/16 03:14:35;;;;;;;6.03;1.07;;;26.30;41.90;;;;;;5053592;28;20225;-70
2022/10/16 03:17:02;;;;;;;4.63;1.40;;;25.90;42.40;;;;;;5051519;28;20278;-70
2022/10/16 03:19:29;;;;;;;5.40;1.43;;;25.30;43.90;;;;;;5053584;28;20180;-71
2022/10/16 03:21:57;;;;;;;4.27;1.50;;;25.80;43.40;;;;;;5048709;28;20310;-71
2022/10/16 03:24:24;;;;;;;2.80;1.17;;;26.10;42.40;;;;;;5053668;28;20192;-71
2022/10/16 03:26:51;;;;;;;4.93;1.57;;;25.80;42.70;;;;;;5049620;28;21078;-69
2022/10/16 03:29:19;;;;;;;3.37;1.20;;;25.40;43.20;;;;;;5053123;28;20172;-71
2022/10/16 03:31:48;;;;;;;4.37;1.37;;;25.50;44.30;;;;;;5054973;28;20206;-71
2022/10/16 03:34:15;;;;;;;8.17;2.50;;;25.30;43.40;;;;;;5047911;28;20635;-71
2022/10/16 03:36:43;;;;;;;5.67;2.00;;;25.50;43.70;;;;;;5053201;28;20564;-70
2022/10/16 03:39:10;;;;;;;6.57;1.67;;;25.20;44.20;;;;;;5053240;28;20187;-70
2022/10/16 03:41:37;;;;;;;6.37;1.40;;;25.30;43.70;;;;;;5055609;28;20667;-70
2022/10/16 03:44:05;;;;;;;6.60;1.67;;;25.40;43.80;;;;;;5048545;28;20190;-71
2022/10/16 03:46:33;;;;;;;3.27;1.40;;;25.30;44.30;;;;;;5052409;28;20655;-71
2022/10/16 03:49:00;;;;;;;4.23;1.37;;;25.80;43.90;;;;;;5052563;28;20187;-72
2022/10/16 03:51:27;;;;;;;6.13;1.30;;;26.80;41.60;;;;;;5049761;28;20572;-68
2022/10/16 03:53:55;;;;;;;3.83;1.27;;;25.90;42.90;;;;;;5047583;28;20208;-68
2022/10/16 03:56:22;;;;;;;3.40;1.20;;;25.90;43.00;;;;;;5033123;28;20211;-69
2022/10/16 03:58:49;;;;;;;7.33;1.73;;;25.40;44.50;;;;;;5045937;28;20393;-69
2022/10/16 04:01:17;;;;;;;4.17;1.20;;;25.80;43.70;;;;;;5052692;28;20571;-70
2022/10/16 04:03:44;;;;;;;3.93;1.27;;;26.30;42.80;;;;;;5052467;28;20215;-69
2022/10/16 04:06:11;;;;;;;4.70;1.10;;;26.50;42.10;;;;;;5052986;28;20538;-68
2022/10/16 04:08:39;;;;;;;4.70;1.30;;;26.40;42.20;;;;;;5052869;28;20184;-68
2022/10/16 04:11:06;;;;;;;7.03;1.30;;;25.30;44.60;;;;;;5052825;28;20184;-70
2022/10/16 04:13:34;;;;;;;4.90;1.33;;;25.10;45.30;;;;;;5050752;28;20180;-68
2022/10/16 04:16:02;;;;;;;5.90;1.37;;;25.00;45.20;;;;;;5053030;28;20184;-68
2022/10/16 04:18:29;;;;;;;7.40;1.43;;;25.30;44.10;;;;;;5052362;28;20207;-67
2022/10/16 04:20:56;;;;;;;5.63;1.43;;;25.60;44.30;;;;;;5034508;28;20180;-69
2022/10/16 04:23:24;;;;;;;2.67;0.97;;;25.80;44.10;;;;;;5048176;28;20274;-68
2022/10/16 04:25:52;;;;;;;3.60;1.13;;;25.60;44.30;;;;;;5040611;28;20177;-69
2022/10/16 04:28:19;;;;;;;2.90;1.10;;;25.90;43.80;;;;;;5044033;28;20184;-69
2022/10/16 04:30:46;;;;;;;5.50;1.23;;;26.70;42.20;;;;;;5050941;28;20184;-68
2022/10/16 04:33:14;;;;;;;7.17;1.60;;;26.60;42.60;;;;;;5052508;28;20521;-68
2022/10/16 04:35:41;;;;;;;3.97;1.30;;;26.30;42.60;;;;;;5052577;28;20184;-69
2022/10/16 04:38:08;;;;;;;4.70;0.97;;;25.50;44.80;;;;;;5050726;28;20540;-68
2022/10/16 04:40:36;;;;;;;7.97;1.70;;;25.80;44.00;;;;;;5052198;28;20210;-69
2022/10/16 04:43:07;;;;;;;6.63;1.83;;;26.30;43.10;;;;;;5051524;28;20219;-69
2022/10/16 04:45:34;;;;;;;4.70;1.53;;;25.90;43.50;;;;;;5046137;28;20199;-69
2022/10/16 04:48:01;;;;;;;4.60;1.20;;;25.70;44.30;;;;;;5047855;28;20191;-69
2022/10/16 04:50:29;;;;;;;4.43;1.23;;;25.70;44.70;;;;;;5050548;28;20589;-70
2022/10/16 04:52:56;;;;;;;7.13;1.40;;;25.40;44.80;;;;;;5050499;28;20658;-71
2022/10/16 04:55:23;;;;;;;8.83;1.67;;;26.60;43.40;;;;;;5050663;28;20195;-69
2022/10/16 04:57:51;;;;;;;4.13;1.60;;;25.80;44.00;;;;;;5049403;28;20183;-69
2022/10/16 05:00:18;;;;;;;6.27;1.70;;;26.30;43.20;;;;;;5050059;28;20229;-69
2022/10/16 05:02:46;;;;;;;6.80;1.33;;;26.20;43.60;;;;;;5038684;28;20575;-70
2022/10/16 05:05:14;;;;;;;3.27;1.23;;;25.90;43.90;;;;;;5051907;28;20241;-69
2022/10/16 05:07:41;;;;;;;4.90;1.23;;;26.40;43.40;;;;;;5051184;28;20184;-69
2022/10/16 05:10:09;;;;;;;4.07;1.40;;;26.30;44.10;;;;;;5051428;28;20206;-68
2022/10/16 05:12:36;;;;;;;4.87;1.37;;;25.90;45.10;;;;;;5049316;28;20302;-67
2022/10/16 05:15:04;;;;;;;6.60;1.17;;;25.60;45.30;;;;;;5055073;28;20259;-69
2022/10/16 05:17:31;;;;;;;3.40;1.23;;;25.40;45.60;;;;;;5054041;28;20188;-71
2022/10/16 05:19:58;;;;;;;9.07;1.60;;;25.30;45.90;;;;;;5053637;28;20186;-69
2022/10/16 05:22:26;;;;;;;4.53;1.17;;;25.60;45.80;;;;;;5047921;28;20223;-69
2022/10/16 05:24:53;;;;;;;8.10;1.53;;;25.90;44.20;;;;;;5054914;28;20172;-68
2022/10/16 05:27:20;;;;;;;6.10;1.57;;;25.40;45.70;;;;;;5054461;28;20685;-67
2022/10/16 05:29:48;;;;;;;7.33;1.30;;;24.70;48.20;;;;;;5055337;28;20167;-69
2022/10/16 05:32:19;;;;;;;7.33;1.50;;;25.50;46.90;;;;;;5054849;28;20172;-70
2022/10/16 05:34:46;;;;;;;6.50;1.57;;;26.10;45.50;;;;;;5054301;28;20192;-70
2022/10/16 05:37:14;;;;;;;7.80;1.67;;;26.10;44.90;;;;;;5049645;28;20199;-69
2022/10/16 05:39:41;;;;;;;3.90;1.43;;;24.90;48.10;;;;;;5053306;28;20180;-69
2022/10/16 05:42:08;;;;;;;5.93;1.30;;;25.10;47.70;;;;;;5061808;28;20204;-69
2022/10/16 05:44:36;;;;;;;4.87;1.13;;;25.60;46.90;;;;;;5052479;28;20192;-68
2022/10/16 05:47:03;;;;;;;7.97;1.30;;;25.00;47.30;;;;;;5041583;28;20226;-70
2022/10/16 05:49:30;;;;;;;4.60;1.10;;;24.80;48.40;;;;;;5054849;28;20658;-69
2022/10/16 05:51:58;;;;;;;3.93;0.90;;;25.20;47.40;;;;;;5057966;28;20194;-68
2022/10/16 05:54:25;;;;;;;5.67;1.60;;;25.10;47.90;;;;;;5045017;28;20180;-68
2022/10/16 05:56:52;;;;;;;4.40;1.20;;;25.10;47.80;;;;;;5055023;28;20286;-72
2022/10/16 05:59:20;;;;;;;6.83;1.23;;;25.70;46.60;;;;;;5042392;28;20180;-70
2022/10/16 06:01:47;;;;;;;5.50;1.40;;;25.40;47.10;;;;;;5049901;28;20211;-69
2022/10/16 06:04:14;;;;;;;3.63;1.30;;;26.10;46.00;;;;;;5054128;28;20184;-69
2022/10/16 06:06:42;;;;;;;7.83;1.47;;;25.00;48.60;;;;;;5054446;28;20175;-69
2022/10/16 06:09:11;;;;;;;6.63;1.70;;;24.60;49.60;;;;;;5048603;28;20270;-67
2022/10/16 06:11:38;;;;;;;6.27;1.60;;;24.60;49.90;;;;;;5043752;28;20287;-69
2022/10/16 06:14:08;;;;;;;4.47;1.33;;;24.80;49.30;;;;;;5054171;28;20596;-71
2022/10/16 06:16:37;;;;;;;4.57;1.13;;;24.20;50.90;;;;;;5052908;28;20237;-69
2022/10/16 06:19:07;;;;;;;6.27;1.40;;;24.20;51.10;;;;;;5053608;28;20241;-70
2022/10/16 06:21:35;;;;;;;3.93;1.00;;;24.10;50.90;;;;;;5050740;28;20180;-68
2022/10/16 06:24:02;;;;;;;7.43;1.67;;;23.10;52.70;;;;;;5053680;28;20563;-68
2022/10/16 06:26:31;;;;;;;7.03;1.60;;;23.10;53.80;;;;;;5045634;28;20572;-68
2022/10/16 06:29:00;;;;;;;7.77;1.40;;;23.20;53.60;;;;;;5052084;28;20280;-69
2022/10/16 06:31:30;;;;;;;6.60;1.57;;;22.60;55.20;;;;;;5064228;28;20312;-69
2022/10/16 06:33:58;;;;;;;7.93;1.73;;;22.70;54.60;;;;;;5050315;28;20202;-69
2022/10/16 06:36:26;;;;;;;7.80;2.00;;;22.50;55.50;;;;;;5051371;28;20206;-69
2022/10/16 06:38:54;;;;;;;5.90;1.37;;;23.30;53.60;;;;;;5053858;28;20646;-68
2022/10/16 06:41:23;;;;;;;8.80;1.97;;;23.60;52.40;;;;;;5053584;28;20188;-70
2022/10/16 06:43:51;;;;;;;6.87;1.53;;;23.70;51.90;;;;;;5058181;28;20223;-68
2022/10/16 06:46:23;;;;;;;4.40;1.30;;;24.00;50.80;;;;;;5052125;28;20249;-68
2022/10/16 06:48:51;;;;;;;4.67;1.30;;;23.10;53.40;;;;;;5056006;28;20283;-70
2022/10/16 06:51:20;;;;;;;4.33;1.53;;;22.60;54.60;;;;;;5053436;28;20180;-68
2022/10/16 06:53:50;;;;;;;7.60;1.83;;;22.30;55.30;;;;;;5050632;28;20177;-72
2022/10/16 06:56:23;;;;;;;4.50;1.13;;;21.90;56.90;;;;;;5049886;28;20250;-69
2022/10/16 06:58:50;;;;;;;4.50;1.43;;;21.70;57.60;;;;;;5047067;28;20651;-69
2022/10/16 07:01:20;;;;;;;6.03;1.73;;;21.60;58.20;;;;;;5053361;28;20183;-69
2022/10/16 07:03:48;;;;;;;8.00;1.53;;;21.50;58.20;;;;;;5052318;28;20211;-69
2022/10/16 07:06:21;;;;;;;7.10;1.50;;;21.50;58.20;;;;;;5052699;28;20639;-69
2022/10/16 07:08:49;;;;;;;4.60;1.33;;;21.40;58.00;;;;;;5052946;28;20184;-69
2022/10/16 07:11:19;;;;;;;6.70;1.63;;;21.40;57.30;;;;;;5051331;28;20172;-69
2022/10/16 07:13:48;;;;;;;8.30;1.60;;;21.30;57.80;;;;;;5053635;28;20234;-69
2022/10/16 07:16:20;;;;;;;5.43;1.70;;;21.10;58.90;;;;;;5053500;28;20183;-69
2022/10/16 07:18:49;;;;;;;5.77;1.23;;;21.10;59.00;;;;;;5058427;28;20187;-69
2022/10/16 07:21:22;;;;;;;9.47;1.73;;;21.10;59.30;;;;;;5053077;28;20191;-68
2022/10/16 07:23:53;;;;;;;6.87;1.90;;;21.00;60.20;;;;;;5053589;28;20575;-69
2022/10/16 07:26:21;;;;;;;10.70;1.73;;;21.00;60.80;;;;;;5052952;28;20178;-70
2022/10/16 07:28:48;;;;;;;8.73;1.50;;;20.90;60.90;;;;;;5052402;28;20175;-68
2022/10/16 07:31:18;;;;;;;4.53;1.23;;;20.80;60.90;;;;;;5053339;28;20207;-68
2022/10/16 07:33:47;;;;;;;4.93;1.30;;;20.70;61.80;;;;;;5052248;28;20180;-68
2022/10/16 07:36:17;;;;;;;4.03;1.60;;;20.60;62.00;;;;;;5052744;28;20179;-68
2022/10/16 07:38:45;;;;;;;10.27;1.83;;;20.60;62.60;;;;;;5053207;28;20180;-68
2022/10/16 07:41:16;;;;;;;9.10;1.93;;;20.70;62.30;;;;;;5052511;28;20330;-68
2022/10/16 07:43:54;;;;;;;6.87;2.37;;;20.60;62.70;;;;;;5052316;28;20714;-68
2022/10/16 07:46:23;;;;;;;9.00;1.57;;;20.50;63.00;;;;;;5053263;28;20224;-68
2022/10/16 07:48:51;;;;;;;7.23;1.80;;;20.50;63.00;;;;;;5051309;28;20192;-70
2022/10/16 07:51:20;;;;;;;5.80;1.83;;;20.50;63.20;;;;;;5053281;28;20262;-69
2022/10/16 07:53:48;;;;;;;6.50;1.30;;;20.20;64.30;;;;;;5052916;28;20175;-69
2022/10/16 07:56:17;;;;;;;7.07;1.57;;;20.20;64.00;;;;;;5051726;28;20271;-69
2022/10/16 07:58:45;;;;;;;6.50;1.67;;;20.10;64.60;;;;;;5052137;28;20176;-68
2022/10/16 08:01:14;;;;;;;6.83;1.73;;;19.90;64.30;;;;;;5052691;28;20186;-70
2022/10/16 08:03:46;;;;;;;8.93;2.90;;;19.80;64.60;;;;;;5051403;28;20224;-68
2022/10/16 08:06:14;;;;;;;8.97;4.80;;;19.80;65.00;;;;;;5042330;28;20230;-68
2022/10/16 08:08:41;;;;;;;9.47;2.10;;;19.80;64.90;;;;;;5040580;28;20520;-70
2022/10/16 08:11:08;;;;;;;7.53;2.10;;;19.80;65.00;;;;;;5052024;28;20254;-67
2022/10/16 08:13:36;;;;;;;5.73;1.80;;;19.80;65.00;;;;;;5052436;28;20180;-70
2022/10/16 08:16:07;;;;;;;7.37;1.97;;;19.70;65.00;;;;;;5051880;28;20306;-69
2022/10/16 08:18:36;;;;;;;7.13;1.60;;;19.60;65.50;;;;;;5052551;28;20172;-70
2022/10/16 08:21:04;;;;;;;8.00;1.80;;;19.30;65.60;;;;;;5052525;28;20211;-68
2022/10/16 08:23:32;;;;;;;4.43;1.63;;;19.40;66.00;;;;;;5050492;28;20216;-70
2022/10/16 08:26:05;;;;;;;4.77;1.93;;;19.40;65.90;;;;;;5040588;28;20176;-70
2022/10/16 08:28:32;;;;;;;7.83;1.97;;;19.40;66.20;;;;;;5038206;28;20188;-70
2022/10/16 08:31:14;;;;;;;9.93;1.73;;;19.30;66.40;;;;;;5052583;28;20183;-69
2022/10/16 08:33:45;;;;;;;4.30;1.50;;;19.30;66.40;;;;;;5052578;28;20176;-70
2022/10/16 08:36:13;;;;;;;4.23;1.57;;;19.20;66.40;;;;;;5051537;28;20190;-70
2022/10/16 08:38:40;;;;;;;5.00;1.90;;;19.20;66.50;;;;;;5051900;28;20218;-69
2022/10/16 08:41:18;;;;;;;5.10;1.90;;;19.30;65.90;;;;;;5052321;28;20184;-70
2022/10/16 08:44:20;;;;;;;7.20;1.80;;;19.30;66.00;;;;;;5045917;28;20254;-69
2022/10/16 08:47:00;;;;;;;5.53;1.77;;;19.30;66.20;;;;;;5047425;28;20245;-70
2022/10/16 08:49:30;;;;;;;6.00;1.50;;;19.20;66.20;;;;;;5055183;28;20183;-69
2022/10/16 08:51:57;;;;;;;7.77;1.77;;;19.20;66.10;;;;;;5051385;28;20277;-71
2022/10/16 08:54:27;;;;;;;9.60;2.10;;;19.20;66.10;;;;;;5048337;28;20188;-70
2022/10/16 08:57:08;;;;;;;8.90;1.77;;;19.20;65.60;;;;;;5050438;28;20268;-70
2022/10/16 08:59:36;;;;;;;5.23;1.47;;;19.00;65.50;;;;;;5056101;28;20202;-69
2022/10/16 09:02:34;;;;;;;5.77;1.67;;;19.00;65.60;;;;;;5055328;28;20214;-70
2022/10/16 09:05:26;;;;;;;6.10;1.57;;;19.00;65.70;;;;;;5046824;28;20775;-71
2022/10/16 09:08:14;;;;;;;5.80;1.60;;;19.00;65.80;;;;;;5041443;28;20244;-71
2022/10/16 09:11:12;;;;;;;3.57;1.70;;;19.00;65.90;;;;;;5051370;28;20178;-71
2022/10/16 09:14:25;;;;;;;4.40;1.70;;;18.90;65.80;;;;;;5019071;28;20188;-70
2022/10/16 09:17:07;;;;;;;5.60;1.60;;;18.90;66.10;;;;;;5024256;28;20685;-69
2022/10/16 09:19:38;;;;;;;7.93;1.90;;;18.90;66.20;;;;;;5040622;28;20212;-70
2022/10/16 09:22:17;;;;;;;5.13;1.60;;;18.80;66.60;;;;;;5047554;28;20298;-70
2022/10/16 09:24:44;;;;;;;5.73;1.80;;;18.80;67.00;;;;;;5054676;28;20175;-71
2022/10/16 09:27:15;;;;;;;6.13;1.50;;;18.70;67.60;;;;;;5055317;28;20187;-70
2022/10/16 09:29:42;;;;;;;7.90;1.83;;;18.70;67.50;;;;;;5054234;28;20176;-70
2022/10/16 09:32:19;;;;;;;5.77;1.73;;;18.80;67.70;;;;;;5055475;28;20561;-70
2022/10/16 09:34:56;;;;;;;7.40;2.10;;;18.80;67.40;;;;;;5049723;28;20199;-71
2022/10/16 09:37:25;;;;;;;5.57;1.50;;;18.70;66.70;;;;;;5054065;28;20183;-71
2022/10/16 09:39:55;;;;;;;7.13;1.50;;;18.60;66.20;;;;;;5055371;28;20691;-71
2022/10/16 09:42:32;;;;;;;3.40;1.60;;;18.50;64.70;;;;;;5047468;28;20220;-71
2022/10/16 09:44:59;;;;;;;8.50;1.70;;;18.50;64.90;;;;;;5055279;28;20186;-70
2022/10/16 09:47:29;;;;;;;4.27;1.17;;;18.70;64.60;;;;;;5051511;28;20330;-70
2022/10/16 09:50:05;;;;;;;8.47;1.60;;;18.50;65.00;;;;;;5046364;28;20192;-70
2022/10/16 09:52:33;;;;;;;5.67;1.73;;;18.50;66.30;;;;;;5041399;28;20187;-71
2022/10/16 09:55:15;;;;;;;13.53;2.40;;;18.50;67.60;;;;;;5054937;28;20540;-70
2022/10/16 09:57:55;;;;;;;10.47;2.10;;;18.50;69.40;;;;;;5041517;28;20521;-70
2022/10/16 10:00:24;;;;;;;5.37;1.70;;;18.50;70.90;;;;;;5053855;28;20179;-71
2022/10/16 10:02:54;;;;;;;4.97;1.63;;;18.50;72.60;;;;;;5054884;28;20678;-70
2022/10/16 10:05:29;;;;;;;6.07;1.60;;;18.40;74.00;;;;;;5054848;28;20176;-70
2022/10/16 10:08:08;;;;;;;7.53;1.47;;;18.50;74.70;;;;;;5042312;28;20232;-70
2022/10/16 10:10:43;;;;;;;9.17;1.80;;;18.50;75.30;;;;;;5044477;28;20184;-71
2022/10/16 10:13:26;;;;;;;6.70;1.70;;;18.40;75.70;;;;;;5054676;28;20559;-70
2022/10/16 10:15:54;;;;;;;8.63;1.70;;;18.40;76.00;;;;;;5054771;28;20187;-71
2022/10/16 10:18:23;;;;;;;6.17;1.80;;;18.30;76.10;;;;;;5054669;28;20200;-69
2022/10/16 10:21:02;;;;;;;5.57;1.67;;;18.20;76.10;;;;;;5046815;28;20184;-69
2022/10/16 10:23:31;;;;;;;9.27;2.10;;;18.20;76.10;;;;;;5054575;28;20249;-71
2022/10/16 10:26:24;;;;;;;11.70;1.50;;;18.20;76.10;;;;;;5053571;28;20225;-69
2022/10/16 10:29:23;;;;;;;7.03;1.57;;;18.10;76.00;;;;;;5045732;28;20234;-70
2022/10/16 10:32:19;;;;;;;7.27;1.53;;;18.00;76.10;;;;;;5049243;28;20228;-70
2022/10/16 10:35:02;;;;;;;8.97;2.53;;;18.00;76.30;;;;;;5054318;28;20188;-71
2022/10/16 10:37:48;;;;;;;8.73;1.80;;;18.00;75.90;;;;;;5042374;28;20184;-70
2022/10/16 10:40:18;;;;;;;7.10;2.00;;;18.00;76.00;;;;;;5054235;28;20176;-70
2022/10/16 10:42:58;;;;;;;14.93;2.97;;;18.00;75.30;;;;;;5054094;28;20212;-70
2022/10/16 10:45:38;;;;;;;10.53;2.10;;;18.00;74.90;;;;;;5051253;28;20183;-70
2022/10/16 10:48:11;;;;;;;7.93;2.23;;;18.00;75.30;;;;;;5053583;28;20591;-71
2022/10/16 10:51:03;;;;;;;13.90;3.67;;;18.10;75.60;;;;;;5049927;28;20524;-71
2022/10/16 10:53:55;;;;;;;12.60;2.57;;;18.10;76.30;;;;;;5050971;28;20191;-71
2022/10/16 10:56:46;;;;;;;12.83;2.70;;;18.10;76.60;;;;;;5053353;28;20183;-70
2022/10/16 10:59:32;;;;;;;7.97;2.23;;;18.20;76.90;;;;;;5041747;28;20266;-70
2022/10/16 11:02:11;;;;;;;11.57;2.90;;;18.20;77.30;;;;;;5053996;28;20207;-70
2022/10/16 11:05:15;;;;;;;15.73;2.93;;;18.10;78.20;;;;;;5050234;28;20696;-70
2022/10/16 11:08:12;;;;;;;12.33;2.37;;;18.20;78.40;;;;;;5040715;28;20602;-68
2022/10/16 11:11:03;;;;;;;11.70;2.30;;;18.10;79.10;;;;;;5042027;28;20241;-69
2022/10/16 11:13:30;;;;;;;12.20;2.00;;;18.10;79.30;;;;;;5053540;28;20190;-69
2022/10/16 11:16:17;;;;;;;13.13;2.70;;;18.00;80.10;;;;;;5053852;28;20180;-70
2022/10/16 11:19:09;;;;;;;11.27;2.53;;;18.00;80.40;;;;;;5053117;28;20537;-70
2022/10/16 11:21:44;;;;;;;11.77;2.63;;;18.00;80.70;;;;;;5053885;28;20176;-69
2022/10/16 11:24:38;;;;;;;6.87;1.90;;;18.00;81.00;;;;;;5053437;28;20263;-68
2022/10/16 11:27:09;;;;;;;17.67;2.67;;;18.20;80.80;;;;;;5049490;28;20195;-69
2022/10/16 11:29:45;;;;;;;10.83;2.37;;;18.10;80.80;;;;;;5053432;28;20677;-69
2022/10/16 11:32:24;;;;;;;13.87;2.57;;;18.20;80.60;;;;;;5053504;28;20317;-69
2022/10/16 11:35:02;;;;;;;13.40;2.50;;;18.20;80.40;;;;;;5052845;28;20179;-67
2022/10/16 11:37:38;;;;;;;14.50;2.80;;;18.10;80.80;;;;;;5053578;28;20178;-69
2022/10/16 11:40:29;;;;;;;8.83;2.47;;;18.10;80.50;;;;;;5053092;28;20803;-69
2022/10/16 11:43:14;;;;;;;15.43;2.60;;;18.00;81.00;;;;;;5052290;28;20727;-69
2022/10/16 11:45:52;;;;;;;17.80;2.90;;;18.10;81.00;;;;;;5053071;28;20228;-68
2022/10/16 11:48:39;;;;;;;9.73;2.20;;;18.10;81.00;;;;;;5046508;28;20257;-69
2022/10/16 11:51:20;;;;;;;15.27;2.60;;;18.20;81.00;;;;;;5049448;28;20175;-69
2022/10/16 11:54:06;;;;;;;17.37;3.13;;;18.20;81.10;;;;;;5051253;28;20188;-69
2022/10/16 11:56:38;;;;;;;10.47;2.43;;;18.00;81.60;;;;;;5052921;28;20660;-68
2022/10/16 11:59:22;;;;;;;13.47;3.30;;;17.90;81.80;;;;;;5046279;28;20203;-68
2022/10/16 12:02:08;;;;;;;19.33;2.80;;;18.00;81.60;;;;;;5048424;28;20195;-69
2022/10/16 12:04:51;;;;;;;17.40;2.60;;;17.90;82.00;;;;;;5052166;28;20585;-69
2022/10/16 12:07:37;;;;;;;12.57;2.67;;;17.90;81.90;;;;;;5052808;28;20186;-69
2022/10/16 12:10:26;;;;;;;11.73;2.10;;;17.80;82.10;;;;;;5047247;28;20179;-69
2022/10/16 12:12:54;;;;;;;10.83;2.33;;;17.80;82.20;;;;;;5037775;28;20241;-68
2022/10/16 12:15:30;;;;;;;19.87;3.13;;;17.70;82.20;;;;;;5051929;28;20255;-70
2022/10/16 12:17:57;;;;;;;14.60;2.43;;;17.80;82.10;;;;;;5046537;28;20543;-70
2022/10/16 12:20:30;;;;;;;18.00;3.20;;;17.80;82.00;;;;;;5052507;28;20172;-71
2022/10/16 12:23:16;;;;;;;15.30;2.90;;;17.70;82.10;;;;;;5052242;28;20218;-71
2022/10/16 12:25:53;;;;;;;14.17;2.30;;;17.70;82.00;;;;;;5041421;28;20212;-71
2022/10/16 12:28:23;;;;;;;14.83;2.43;;;17.70;82.00;;;;;;5052221;28;20168;-70
2022/10/16 12:30:58;;;;;;;15.30;2.63;;;17.60;82.20;;;;;;5052633;28;20543;-71
2022/10/16 12:33:42;;;;;;;16.77;3.40;;;17.60;82.20;;;;;;5051987;28;20653;-71
2022/10/16 12:36:28;;;;;;;21.83;2.63;;;17.50;82.20;;;;;;5043640;28;20186;-71
2022/10/16 12:38:56;;;;;;;13.43;2.67;;;17.50;82.10;;;;;;5038359;28;20297;-70
2022/10/16 12:41:29;;;;;;;18.20;2.70;;;17.50;82.20;;;;;;5051718;28;20175;-69
2022/10/16 12:43:57;;;;;;;12.77;2.63;;;17.50;82.30;;;;;;5047988;28;20249;-70
2022/10/16 12:46:44;;;;;;;13.03;2.43;;;17.40;82.20;;;;;;5047537;28;20366;-71
2022/10/16 12:49:24;;;;;;;14.37;2.60;;;17.40;82.20;;;;;;5042902;28;20540;-70
2022/10/16 12:51:51;;;;;;;11.17;2.60;;;17.30;82.40;;;;;;5045073;28;20191;-70
2022/10/16 12:54:37;;;;;;;11.60;2.90;;;17.30;82.50;;;;;;5052146;28;20191;-70
2022/10/16 12:57:10;;;;;;;11.27;2.47;;;17.30;82.70;;;;;;5050303;28;20270;-70
2022/10/16 12:59:49;;;;;;;11.87;2.43;;;17.20;82.90;;;;;;5051197;28;20274;-69
2022/10/16 13:02:34;;;;;;;14.00;2.37;;;17.20;83.20;;;;;;5051111;28;20242;-69
2022/10/16 13:05:39;;;;;;;9.37;2.13;;;17.10;83.30;;;;;;5052240;28;20237;-70
2022/10/16 13:08:25;;;;;;;15.63;2.93;;;17.10;83.60;;;;;;5040790;28;20191;-70
2022/10/16 13:11:18;;;;;;;13.47;2.77;;;17.00;83.60;;;;;;5048802;28;20215;-71
2022/10/16 13:13:51;;;;;;;14.50;2.60;;;17.00;83.40;;;;;;5052049;28;20530;-70
2022/10/16 13:16:54;;;;;;;10.73;2.63;;;17.00;83.60;;;;;;5051568;28;20185;-69
2022/10/16 13:19:48;;;;;;;13.63;2.80;;;17.00;83.80;;;;;;5050471;28;20182;-70